Weather at Moi Air Base

Public forecast

Using degrees Celsius for public forecast. Weather courtesy of forecast.io.

Closest aviation weather report (METAR) to Moi Air Base

Report is more than 2 hours old.

Closest report is Nairobi Wilson Airport, 3.9 nm (7.2 km) SW.

2022/12/04 03:00 (retrieved 2 hours ago)

HKNW 040300Z 06010KT 9999 SCT010 BKN018 17/16 Q1020

Closest aviation forecast (TAF) to Moi Air Base

Forecast is more than 6 hours old.

Closest forecast is Jomo Kenyatta International Airport, 4.7 nm (8.6 km) ESE.

2022/12/03 18:54 (retrieved 10 hours ago)

TAF TAF HKJK 031700Z 0318/0424 04010KT 9999 FEW022 BECMG 0320/0323 CAVOK BECMG 0408/0411 06015KT 9999 FEW025CB BKN026 BECMG 0420/0423 04005KT CAVOK